sensor_id;sensor_type;location;lat;lon;timestamp;temperature;humidity
6270;DHT22;3168;51.684;6.954;2022-09-21T00:01:22;8.00;99.90
6270;DHT22;3168;51.684;6.954;2022-09-21T00:03:46;7.90;99.90
6270;DHT22;3168;51.684;6.954;2022-09-21T00:06:14;7.90;99.90
6270;DHT22;3168;51.684;6.954;2022-09-21T00:08:39;7.80;99.90
6270;DHT22;3168;51.684;6.954;2022-09-21T00:11:05;7.80;99.90
6270;DHT22;3168;51.684;6.954;2022-09-21T00:13:31;7.80;99.90
6270;DHT22;3168;51.684;6.954;2022-09-21T00:15:56;7.80;99.90
6270;DHT22;3168;51.684;6.954;2022-09-21T00:18:22;7.80;99.90
6270;DHT22;3168;51.684;6.954;2022-09-21T00:20:48;7.80;99.90
6270;DHT22;3168;51.684;6.954;2022-09-21T00:23:14;7.80;99.90
6270;DHT22;3168;51.684;6.954;2022-09-21T00:25:40;7.80;99.90
6270;DHT22;3168;51.684;6.954;2022-09-21T00:28:05;7.80;99.90
6270;DHT22;3168;51.684;6.954;2022-09-21T00:30:31;7.70;99.90
6270;DHT22;3168;51.684;6.954;2022-09-21T00:32:58;7.50;99.90
6270;DHT22;3168;51.684;6.954;2022-09-21T00:35:24;7.50;99.90
6270;DHT22;3168;51.684;6.954;2022-09-21T00:37:49;7.40;99.90
6270;DHT22;3168;51.684;6.954;2022-09-21T00:40:15;7.40;99.90
6270;DHT22;3168;51.684;6.954;2022-09-21T00:42:41;7.50;99.90
6270;DHT22;3168;51.684;6.954;2022-09-21T00:45:09;7.50;99.90
6270;DHT22;3168;51.684;6.954;2022-09-21T00:47:34;7.50;99.90
6270;DHT22;3168;51.684;6.954;2022-09-21T00:49:59;7.50;99.90
6270;DHT22;3168;51.684;6.954;2022-09-21T00:52:26;7.50;99.90
6270;DHT22;3168;51.684;6.954;2022-09-21T00:54:53;7.50;99.90
6270;DHT22;3168;51.684;6.954;2022-09-21T00:57:19;7.50;99.90
6270;DHT22;3168;51.684;6.954;2022-09-21T00:59:44;7.50;99.90
6270;DHT22;3168;51.684;6.954;2022-09-21T01:02:10;7.40;99.90
6270;DHT22;3168;51.684;6.954;2022-09-21T01:04:37;7.40;99.90
6270;DHT22;3168;51.684;6.954;2022-09-21T01:07:04;7.40;99.90
6270;DHT22;3168;51.684;6.954;2022-09-21T01:09:29;7.40;99.90
6270;DHT22;3168;51.684;6.954;2022-09-21T01:12:03;7.30;99.90
6270;DHT22;3168;51.684;6.954;2022-09-21T01:14:36;7.30;99.90
6270;DHT22;3168;51.684;6.954;2022-09-21T01:17:01;7.20;99.90
6270;DHT22;3168;51.684;6.954;2022-09-21T01:19:55;7.20;99.90
6270;DHT22;3168;51.684;6.954;2022-09-21T01:22:38;7.20;99.90
6270;DHT22;3168;51.684;6.954;2022-09-21T01:25:18;7.20;99.90
6270;DHT22;3168;51.684;6.954;2022-09-21T01:27:58;7.20;99.90
6270;DHT22;3168;51.684;6.954;2022-09-21T01:30:22;7.10;99.90
6270;DHT22;3168;51.684;6.954;2022-09-21T01:33:08;7.10;99.90
6270;DHT22;3168;51.684;6.954;2022-09-21T01:35:37;7.00;99.90
6270;DHT22;3168;51.684;6.954;2022-09-21T01:38:03;7.00;99.90
6270;DHT22;3168;51.684;6.954;2022-09-21T01:40:30;6.90;99.90
6270;DHT22;3168;51.684;6.954;2022-09-21T01:42:56;6.80;99.90
6270;DHT22;3168;51.684;6.954;2022-09-21T01:45:27;6.80;99.90
6270;DHT22;3168;51.684;6.954;2022-09-21T01:47:51;6.80;99.90
6270;DHT22;3168;51.684;6.954;2022-09-21T01:50:17;6.80;99.90
6270;DHT22;3168;51.684;6.954;2022-09-21T01:52:49;6.80;99.90
6270;DHT22;3168;51.684;6.954;2022-09-21T01:55:22;6.70;99.90
6270;DHT22;3168;51.684;6.954;2022-09-21T01:57:55;6.80;99.90
6270;DHT22;3168;51.684;6.954;2022-09-21T02:00:19;6.80;99.90
6270;DHT22;3168;51.684;6.954;2022-09-21T02:02:49;6.80;99.90
6270;DHT22;3168;51.684;6.954;2022-09-21T02:05:12;6.80;99.90
6270;DHT22;3168;51.684;6.954;2022-09-21T02:07:38;6.80;99.90
6270;DHT22;3168;51.684;6.954;2022-09-21T02:10:06;6.70;99.90
6270;DHT22;3168;51.684;6.954;2022-09-21T02:12:31;6.70;99.90
6270;DHT22;3168;51.684;6.954;2022-09-21T02:14:57;6.60;99.90
6270;DHT22;3168;51.684;6.954;2022-09-21T02:17:45;6.50;99.90
6270;DHT22;3168;51.684;6.954;2022-09-21T02:20:14;6.50;99.90
6270;DHT22;3168;51.684;6.954;2022-09-21T02:22:46;6.50;99.90
6270;DHT22;3168;51.684;6.954;2022-09-21T02:25:14;6.50;99.90
6270;DHT22;3168;51.684;6.954;2022-09-21T02:27:52;6.50;99.90
6270;DHT22;3168;51.684;6.954;2022-09-21T02:30:19;6.40;99.90
6270;DHT22;3168;51.684;6.954;2022-09-21T02:38:11;6.40;99.90
6270;DHT22;3168;51.684;6.954;2022-09-21T02:40:50;6.40;99.90
6270;DHT22;3168;51.684;6.954;2022-09-21T02:43:19;6.30;99.90
6270;DHT22;3168;51.684;6.954;2022-09-21T02:45:45;6.20;99.90
6270;DHT22;3168;51.684;6.954;2022-09-21T02:48:11;6.10;99.90
6270;DHT22;3168;51.684;6.954;2022-09-21T02:50:53;6.20;99.90
6270;DHT22;3168;51.684;6.954;2022-09-21T02:53:21;6.30;99.90
6270;DHT22;3168;51.684;6.954;2022-09-21T02:55:45;6.30;99.90
6270;DHT22;3168;51.684;6.954;2022-09-21T02:58:12;6.30;99.90
6270;DHT22;3168;51.684;6.954;2022-09-21T03:00:37;6.30;99.90
6270;DHT22;3168;51.684;6.954;2022-09-21T03:03:13;6.40;99.90
6270;DHT22;3168;51.684;6.954;2022-09-21T03:05:38;6.40;99.90
6270;DHT22;3168;51.684;6.954;2022-09-21T03:08:03;6.40;99.90
6270;DHT22;3168;51.684;6.954;2022-09-21T03:10:29;6.40;99.90
6270;DHT22;3168;51.684;6.954;2022-09-21T03:12:56;6.40;99.90
6270;DHT22;3168;51.684;6.954;2022-09-21T03:15:22;6.30;99.90
6270;DHT22;3168;51.684;6.954;2022-09-21T03:17:47;6.30;99.90
6270;DHT22;3168;51.684;6.954;2022-09-21T03:20:13;6.20;99.90
6270;DHT22;3168;51.684;6.954;2022-09-21T03:22:39;6.30;99.90
6270;DHT22;3168;51.684;6.954;2022-09-21T03:25:06;6.30;99.90
6270;DHT22;3168;51.684;6.954;2022-09-21T03:27:33;6.30;99.90
6270;DHT22;3168;51.684;6.954;2022-09-21T03:29:58;6.30;99.90
6270;DHT22;3168;51.684;6.954;2022-09-21T03:32:24;6.40;99.90
6270;DHT22;3168;51.684;6.954;2022-09-21T03:34:50;6.40;99.90
6270;DHT22;3168;51.684;6.954;2022-09-21T03:37:15;6.50;99.90
6270;DHT22;3168;51.684;6.954;2022-09-21T03:39:42;6.50;99.90
6270;DHT22;3168;51.684;6.954;2022-09-21T03:42:08;6.50;99.90
6270;DHT22;3168;51.684;6.954;2022-09-21T03:44:34;6.50;99.90
6270;DHT22;3168;51.684;6.954;2022-09-21T03:47:00;6.50;99.90
6270;DHT22;3168;51.684;6.954;2022-09-21T03:49:26;6.40;99.90
6270;DHT22;3168;51.684;6.954;2022-09-21T03:51:52;6.40;99.90
6270;DHT22;3168;51.684;6.954;2022-09-21T03:54:18;6.40;99.90
6270;DHT22;3168;51.684;6.954;2022-09-21T03:56:49;6.30;99.90
6270;DHT22;3168;51.684;6.954;2022-09-21T03:59:15;6.30;99.90
6270;DHT22;3168;51.684;6.954;2022-09-21T04:01:40;6.20;99.90
6270;DHT22;3168;51.684;6.954;2022-09-21T04:04:06;6.30;99.90
6270;DHT22;3168;51.684;6.954;2022-09-21T04:06:32;6.20;99.90
6270;DHT22;3168;51.684;6.954;2022-09-21T04:08:58;6.20;99.90
6270;DHT22;3168;51.684;6.954;2022-09-21T04:11:24;6.20;99.90
6270;DHT22;3168;51.684;6.954;2022-09-21T04:13:50;6.10;99.90
6270;DHT22;3168;51.684;6.954;2022-09-21T04:16:15;5.90;99.90
6270;DHT22;3168;51.684;6.954;2022-09-21T04:18:41;5.80;99.90
6270;DHT22;3168;51.684;6.954;2022-09-21T04:21:07;5.70;99.90
6270;DHT22;3168;51.684;6.954;2022-09-21T04:23:33;5.70;99.90
6270;DHT22;3168;51.684;6.954;2022-09-21T04:25:59;5.60;99.90
6270;DHT22;3168;51.684;6.954;2022-09-21T04:28:24;5.60;99.90
6270;DHT22;3168;51.684;6.954;2022-09-21T04:30:52;5.60;99.90
6270;DHT22;3168;51.684;6.954;2022-09-21T04:33:17;5.50;99.90
6270;DHT22;3168;51.684;6.954;2022-09-21T04:35:43;5.50;99.90
6270;DHT22;3168;51.684;6.954;2022-09-21T04:38:09;5.40;99.90
6270;DHT22;3168;51.684;6.954;2022-09-21T04:40:34;5.50;99.90
6270;DHT22;3168;51.684;6.954;2022-09-21T04:43:00;5.50;99.90
6270;DHT22;3168;51.684;6.954;2022-09-21T04:45:26;5.50;99.90
6270;DHT22;3168;51.684;6.954;2022-09-21T04:47:52;5.50;99.90
6270;DHT22;3168;51.684;6.954;2022-09-21T04:50:18;5.60;99.90
6270;DHT22;3168;51.684;6.954;2022-09-21T04:52:44;5.70;99.90
6270;DHT22;3168;51.684;6.954;2022-09-21T04:55:09;5.60;99.90
6270;DHT22;3168;51.684;6.954;2022-09-21T04:57:35;5.70;99.90
6270;DHT22;3168;51.684;6.954;2022-09-21T05:00:03;5.70;99.90
6270;DHT22;3168;51.684;6.954;2022-09-21T05:02:27;5.70;99.90
6270;DHT22;3168;51.684;6.954;2022-09-21T05:04:53;5.60;99.90
6270;DHT22;3168;51.684;6.954;2022-09-21T05:07:19;5.60;99.90
6270;DHT22;3168;51.684;6.954;2022-09-21T05:09:44;5.60;99.90
6270;DHT22;3168;51.684;6.954;2022-09-21T05:12:16;5.50;99.90
6270;DHT22;3168;51.684;6.954;2022-09-21T05:14:42;5.40;99.90
6270;DHT22;3168;51.684;6.954;2022-09-21T05:17:08;5.40;99.90
6270;DHT22;3168;51.684;6.954;2022-09-21T05:19:34;5.30;99.90
6270;DHT22;3168;51.684;6.954;2022-09-21T05:22:00;5.30;99.90
6270;DHT22;3168;51.684;6.954;2022-09-21T05:24:25;5.40;99.90
6270;DHT22;3168;51.684;6.954;2022-09-21T05:26:51;5.40;99.90
6270;DHT22;3168;51.684;6.954;2022-09-21T05:29:17;5.40;99.90
6270;DHT22;3168;51.684;6.954;2022-09-21T05:31:46;5.40;99.90
6270;DHT22;3168;51.684;6.954;2022-09-21T05:34:35;5.30;99.90
6270;DHT22;3168;51.684;6.954;2022-09-21T05:37:09;5.20;99.90
6270;DHT22;3168;51.684;6.954;2022-09-21T05:39:32;5.20;99.90
6270;DHT22;3168;51.684;6.954;2022-09-21T05:41:58;5.20;99.90
6270;DHT22;3168;51.684;6.954;2022-09-21T05:44:24;5.20;99.90
6270;DHT22;3168;51.684;6.954;2022-09-21T05:46:53;5.20;99.90
6270;DHT22;3168;51.684;6.954;2022-09-21T05:49:22;5.30;99.90
6270;DHT22;3168;51.684;6.954;2022-09-21T05:52:11;5.20;99.90
6270;DHT22;3168;51.684;6.954;2022-09-21T05:54:42;5.30;99.90
6270;DHT22;3168;51.684;6.954;2022-09-21T05:57:07;5.40;99.90
6270;DHT22;3168;51.684;6.954;2022-09-21T06:04:48;5.50;99.90
6270;DHT22;3168;51.684;6.954;2022-09-21T06:07:13;5.50;99.90
6270;DHT22;3168;51.684;6.954;2022-09-21T06:09:39;5.60;99.90
6270;DHT22;3168;51.684;6.954;2022-09-21T06:12:05;5.60;99.90
6270;DHT22;3168;51.684;6.954;2022-09-21T06:14:31;5.70;99.90
6270;DHT22;3168;51.684;6.954;2022-09-21T06:16:57;5.70;99.90
6270;DHT22;3168;51.684;6.954;2022-09-21T06:19:22;5.80;99.90
6270;DHT22;3168;51.684;6.954;2022-09-21T06:21:49;5.90;99.90
6270;DHT22;3168;51.684;6.954;2022-09-21T06:24:15;5.90;99.90
6270;DHT22;3168;51.684;6.954;2022-09-21T06:26:41;6.00;99.90
6270;DHT22;3168;51.684;6.954;2022-09-21T06:29:06;6.10;99.90
6270;DHT22;3168;51.684;6.954;2022-09-21T06:31:32;6.10;99.90
6270;DHT22;3168;51.684;6.954;2022-09-21T06:33:58;6.30;99.90
6270;DHT22;3168;51.684;6.954;2022-09-21T06:36:24;6.40;99.90
6270;DHT22;3168;51.684;6.954;2022-09-21T06:38:50;6.40;99.90
6270;DHT22;3168;51.684;6.954;2022-09-21T06:41:16;6.60;99.90
6270;DHT22;3168;51.684;6.954;2022-09-21T06:43:42;6.70;99.90
6270;DHT22;3168;51.684;6.954;2022-09-21T06:46:07;6.80;99.90
6270;DHT22;3168;51.684;6.954;2022-09-21T06:48:33;6.80;99.90
6270;DHT22;3168;51.684;6.954;2022-09-21T06:51:00;6.90;99.90
6270;DHT22;3168;51.684;6.954;2022-09-21T06:53:26;7.00;99.90
6270;DHT22;3168;51.684;6.954;2022-09-21T06:55:52;7.10;99.90
6270;DHT22;3168;51.684;6.954;2022-09-21T06:58:18;7.20;99.90
6270;DHT22;3168;51.684;6.954;2022-09-21T07:00:43;7.20;99.90
6270;DHT22;3168;51.684;6.954;2022-09-21T07:03:10;7.30;99.90
6270;DHT22;3168;51.684;6.954;2022-09-21T07:05:35;7.40;99.90
6270;DHT22;3168;51.684;6.954;2022-09-21T07:08:01;7.40;99.90
6270;DHT22;3168;51.684;6.954;2022-09-21T07:10:27;7.60;99.90
6270;DHT22;3168;51.684;6.954;2022-09-21T07:12:54;7.70;99.90
6270;DHT22;3168;51.684;6.954;2022-09-21T07:15:20;7.80;99.90
6270;DHT22;3168;51.684;6.954;2022-09-21T07:17:46;7.90;99.90
6270;DHT22;3168;51.684;6.954;2022-09-21T07:20:12;8.00;99.90
6270;DHT22;3168;51.684;6.954;2022-09-21T07:22:38;8.10;99.90
6270;DHT22;3168;51.684;6.954;2022-09-21T07:25:04;8.30;99.90
6270;DHT22;3168;51.684;6.954;2022-09-21T07:27:31;8.30;99.90
6270;DHT22;3168;51.684;6.954;2022-09-21T07:29:56;8.40;99.90
6270;DHT22;3168;51.684;6.954;2022-09-21T07:32:22;8.50;99.90
6270;DHT22;3168;51.684;6.954;2022-09-21T07:34:48;8.50;99.90
6270;DHT22;3168;51.684;6.954;2022-09-21T07:37:14;8.80;99.90
6270;DHT22;3168;51.684;6.954;2022-09-21T07:39:40;8.80;99.90
6270;DHT22;3168;51.684;6.954;2022-09-21T07:42:06;8.90;99.90
6270;DHT22;3168;51.684;6.954;2022-09-21T07:44:32;9.10;99.90
6270;DHT22;3168;51.684;6.954;2022-09-21T07:46:57;9.20;99.90
6270;DHT22;3168;51.684;6.954;2022-09-21T07:49:24;9.40;99.90
6270;DHT22;3168;51.684;6.954;2022-09-21T07:51:50;9.40;99.90
6270;DHT22;3168;51.684;6.954;2022-09-21T07:54:16;9.60;99.90
6270;DHT22;3168;51.684;6.954;2022-09-21T07:56:41;9.70;99.90
6270;DHT22;3168;51.684;6.954;2022-09-21T07:59:08;9.80;99.90
6270;DHT22;3168;51.684;6.954;2022-09-21T08:01:34;9.90;99.90
6270;DHT22;3168;51.684;6.954;2022-09-21T08:04:00;10.00;99.90
6270;DHT22;3168;51.684;6.954;2022-09-21T08:06:26;10.20;99.90
6270;DHT22;3168;51.684;6.954;2022-09-21T08:08:51;10.20;98.50
6270;DHT22;3168;51.684;6.954;2022-09-21T08:11:18;10.50;97.10
6270;DHT22;3168;51.684;6.954;2022-09-21T08:13:43;10.50;96.10
6270;DHT22;3168;51.684;6.954;2022-09-21T08:16:09;10.70;95.80
6270;DHT22;3168;51.684;6.954;2022-09-21T08:18:35;10.80;95.80
6270;DHT22;3168;51.684;6.954;2022-09-21T08:21:01;11.00;94.90
6270;DHT22;3168;51.684;6.954;2022-09-21T08:23:27;11.10;94.20
6270;DHT22;3168;51.684;6.954;2022-09-21T08:25:56;11.20;93.10
6270;DHT22;3168;51.684;6.954;2022-09-21T08:28:18;11.30;91.50
6270;DHT22;3168;51.684;6.954;2022-09-21T08:30:44;11.40;91.30
6270;DHT22;3168;51.684;6.954;2022-09-21T08:33:10;11.60;91.30
6270;DHT22;3168;51.684;6.954;2022-09-21T08:35:35;11.70;89.90
6270;DHT22;3168;51.684;6.954;2022-09-21T08:38:01;11.90;88.90
6270;DHT22;3168;51.684;6.954;2022-09-21T08:40:27;12.00;86.20
6270;DHT22;3168;51.684;6.954;2022-09-21T08:42:58;12.00;81.30
6270;DHT22;3168;51.684;6.954;2022-09-21T08:45:22;12.10;81.70
6270;DHT22;3168;51.684;6.954;2022-09-21T08:47:49;12.30;84.30
6270;DHT22;3168;51.684;6.954;2022-09-21T08:50:33;12.40;82.90
6270;DHT22;3168;51.684;6.954;2022-09-21T08:52:57;12.50;76.80
6270;DHT22;3168;51.684;6.954;2022-09-21T08:55:22;12.60;74.20
6270;DHT22;3168;51.684;6.954;2022-09-21T08:57:48;12.70;74.30
6270;DHT22;3168;51.684;6.954;2022-09-21T09:00:15;12.90;72.80
6270;DHT22;3168;51.684;6.954;2022-09-21T09:03:10;13.00;70.30
6270;DHT22;3168;51.684;6.954;2022-09-21T09:05:46;13.20;63.80
6270;DHT22;3168;51.684;6.954;2022-09-21T09:08:34;13.30;59.10
6270;DHT22;3168;51.684;6.954;2022-09-21T09:11:15;13.40;54.40
6270;DHT22;3168;51.684;6.954;2022-09-21T09:13:46;13.60;51.10
6270;DHT22;3168;51.684;6.954;2022-09-21T09:16:17;13.60;45.80
6270;DHT22;3168;51.684;6.954;2022-09-21T09:21:28;13.80;40.10
6270;DHT22;3168;51.684;6.954;2022-09-21T09:26:29;13.90;34.00
6270;DHT22;3168;51.684;6.954;2022-09-21T09:28:54;14.00;28.80
6270;DHT22;3168;51.684;6.954;2022-09-21T09:31:22;14.00;27.50
6270;DHT22;3168;51.684;6.954;2022-09-21T09:33:54;14.10;29.70
6270;DHT22;3168;51.684;6.954;2022-09-21T09:36:18;14.20;27.70
6270;DHT22;3168;51.684;6.954;2022-09-21T09:39:04;14.30;25.00
6270;DHT22;3168;51.684;6.954;2022-09-21T09:44:37;14.50;12.20
6270;DHT22;3168;51.684;6.954;2022-09-21T09:47:35;14.70;1.00
6270;DHT22;3168;51.684;6.954;2022-09-21T09:52:16;14.70;1.00
6270;DHT22;3168;51.684;6.954;2022-09-21T09:54:42;15.00;1.00
6270;DHT22;3168;51.684;6.954;2022-09-21T09:57:07;15.10;1.00
6270;DHT22;3168;51.684;6.954;2022-09-21T09:59:35;15.10;1.00
6270;DHT22;3168;51.684;6.954;2022-09-21T10:02:01;15.20;1.00
6270;DHT22;3168;51.684;6.954;2022-09-21T10:04:25;15.30;1.00
6270;DHT22;3168;51.684;6.954;2022-09-21T10:06:51;15.40;1.00
6270;DHT22;3168;51.684;6.954;2022-09-21T10:09:24;15.30;1.00
6270;DHT22;3168;51.684;6.954;2022-09-21T10:11:49;15.40;1.00
6270;DHT22;3168;51.684;6.954;2022-09-21T10:14:17;15.30;1.00
6270;DHT22;3168;51.684;6.954;2022-09-21T10:16:41;15.30;1.00
6270;DHT22;3168;51.684;6.954;2022-09-21T10:19:13;15.50;1.00
6270;DHT22;3168;51.684;6.954;2022-09-21T10:21:39;15.50;1.00
6270;DHT22;3168;51.684;6.954;2022-09-21T10:24:06;15.50;1.00
6270;DHT22;3168;51.684;6.954;2022-09-21T10:26:35;15.50;1.00
6270;DHT22;3168;51.684;6.954;2022-09-21T10:29:01;15.40;1.00
6270;DHT22;3168;51.684;6.954;2022-09-21T10:54:47;16.20;1.00
6270;DHT22;3168;51.684;6.954;2022-09-21T10:57:15;16.00;1.00
6270;DHT22;3168;51.684;6.954;2022-09-21T10:59:40;15.90;1.00
6270;DHT22;3168;51.684;6.954;2022-09-21T11:02:26;15.80;1.00
6270;DHT22;3168;51.684;6.954;2022-09-21T11:04:52;15.90;1.00
6270;DHT22;3168;51.684;6.954;2022-09-21T11:07:21;15.80;1.00
6270;DHT22;3168;51.684;6.954;2022-09-21T11:09:53;15.90;1.00
6270;DHT22;3168;51.684;6.954;2022-09-21T11:12:46;15.90;1.00
6270;DHT22;3168;51.684;6.954;2022-09-21T11:15:24;15.90;1.00
6270;DHT22;3168;51.684;6.954;2022-09-21T11:18:02;16.00;1.00
6270;DHT22;3168;51.684;6.954;2022-09-21T11:20:29;15.80;1.00
6270;DHT22;3168;51.684;6.954;2022-09-21T11:23:07;15.80;1.00
6270;DHT22;3168;51.684;6.954;2022-09-21T11:25:36;16.00;1.00
6270;DHT22;3168;51.684;6.954;2022-09-21T11:28:03;16.30;1.00
6270;DHT22;3168;51.684;6.954;2022-09-21T11:30:26;16.40;1.00
6270;DHT22;3168;51.684;6.954;2022-09-21T11:33:30;16.50;1.00
6270;DHT22;3168;51.684;6.954;2022-09-21T11:35:46;16.70;1.00
6270;DHT22;3168;51.684;6.954;2022-09-21T11:38:19;16.60;1.00
6270;DHT22;3168;51.684;6.954;2022-09-21T11:40:53;16.50;1.00
6270;DHT22;3168;51.684;6.954;2022-09-21T11:43:31;16.30;1.00
6270;DHT22;3168;51.684;6.954;2022-09-21T11:46:10;16.30;1.00
6270;DHT22;3168;51.684;6.954;2022-09-21T11:48:54;16.50;1.00
6270;DHT22;3168;51.684;6.954;2022-09-21T11:51:41;16.90;1.00
6270;DHT22;3168;51.684;6.954;2022-09-21T11:54:43;17.10;1.00
6270;DHT22;3168;51.684;6.954;2022-09-21T11:56:51;17.10;1.00
6270;DHT22;3168;51.684;6.954;2022-09-21T12:02:21;17.40;1.00
6270;DHT22;3168;51.684;6.954;2022-09-21T12:04:48;17.30;1.00
6270;DHT22;3168;51.684;6.954;2022-09-21T12:08:31;17.50;1.00
6270;DHT22;3168;51.684;6.954;2022-09-21T12:10:12;17.40;1.00
6270;DHT22;3168;51.684;6.954;2022-09-21T12:12:40;17.10;1.00
6270;DHT22;3168;51.684;6.954;2022-09-21T12:15:09;17.10;1.00
6270;DHT22;3168;51.684;6.954;2022-09-21T12:17:44;17.00;1.00
6270;DHT22;3168;51.684;6.954;2022-09-21T12:20:19;16.90;1.00
6270;DHT22;3168;51.684;6.954;2022-09-21T12:22:45;16.90;1.00
6270;DHT22;3168;51.684;6.954;2022-09-21T12:25:15;17.20;1.00
6270;DHT22;3168;51.684;6.954;2022-09-21T12:27:46;17.20;1.00
6270;DHT22;3168;51.684;6.954;2022-09-21T12:30:14;17.20;1.00
6270;DHT22;3168;51.684;6.954;2022-09-21T12:32:45;17.40;1.00
6270;DHT22;3168;51.684;6.954;2022-09-21T12:35:14;17.60;1.00
6270;DHT22;3168;51.684;6.954;2022-09-21T12:37:39;17.90;1.00
6270;DHT22;3168;51.684;6.954;2022-09-21T12:40:05;18.20;1.00
6270;DHT22;3168;51.684;6.954;2022-09-21T12:42:33;18.10;1.00
6270;DHT22;3168;51.684;6.954;2022-09-21T12:44:58;18.20;1.00
6270;DHT22;3168;51.684;6.954;2022-09-21T12:47:40;18.10;1.00
6270;DHT22;3168;51.684;6.954;2022-09-21T12:50:00;17.90;1.00
6270;DHT22;3168;51.684;6.954;2022-09-21T12:52:24;17.80;1.00
6270;DHT22;3168;51.684;6.954;2022-09-21T12:57:37;18.10;1.00
6270;DHT22;3168;51.684;6.954;2022-09-21T13:00:04;17.80;1.00
6270;DHT22;3168;51.684;6.954;2022-09-21T13:02:40;17.70;1.00
6270;DHT22;3168;51.684;6.954;2022-09-21T13:05:29;17.70;1.00
6270;DHT22;3168;51.684;6.954;2022-09-21T13:08:09;17.80;1.00
6270;DHT22;3168;51.684;6.954;2022-09-21T13:10:44;18.40;1.00
6270;DHT22;3168;51.684;6.954;2022-09-21T13:13:17;18.40;1.00
6270;DHT22;3168;51.684;6.954;2022-09-21T13:15:43;18.70;1.00
6270;DHT22;3168;51.684;6.954;2022-09-21T13:18:18;18.80;1.00
6270;DHT22;3168;51.684;6.954;2022-09-21T13:20:42;18.60;1.00
6270;DHT22;3168;51.684;6.954;2022-09-21T13:23:23;18.10;1.00
6270;DHT22;3168;51.684;6.954;2022-09-21T13:25:39;17.80;1.00
6270;DHT22;3168;51.684;6.954;2022-09-21T13:28:23;18.00;1.00
6270;DHT22;3168;51.684;6.954;2022-09-21T13:34:27;17.50;1.00
6270;DHT22;3168;51.684;6.954;2022-09-21T13:36:35;17.50;1.00
6270;DHT22;3168;51.684;6.954;2022-09-21T13:39:03;17.20;1.00
6270;DHT22;3168;51.684;6.954;2022-09-21T13:41:27;16.90;1.00
6270;DHT22;3168;51.684;6.954;2022-09-21T13:44:04;16.50;1.00
6270;DHT22;3168;51.684;6.954;2022-09-21T13:46:49;16.40;1.00
6270;DHT22;3168;51.684;6.954;2022-09-21T13:49:26;16.60;1.00
6270;DHT22;3168;51.684;6.954;2022-09-21T13:53:16;16.50;1.00
6270;DHT22;3168;51.684;6.954;2022-09-21T13:54:50;16.40;1.00
6270;DHT22;3168;51.684;6.954;2022-09-21T14:00:02;16.80;1.00
6270;DHT22;3168;51.684;6.954;2022-09-21T14:02:31;17.10;1.00
6270;DHT22;3168;51.684;6.954;2022-09-21T14:04:58;17.10;1.00
6270;DHT22;3168;51.684;6.954;2022-09-21T14:07:22;17.00;1.00
6270;DHT22;3168;51.684;6.954;2022-09-21T14:09:52;17.20;1.00
6270;DHT22;3168;51.684;6.954;2022-09-21T14:12:18;17.40;1.00
6270;DHT22;3168;51.684;6.954;2022-09-21T14:14:43;17.40;1.00
6270;DHT22;3168;51.684;6.954;2022-09-21T14:20:03;17.60;1.00
6270;DHT22;3168;51.684;6.954;2022-09-21T14:22:32;17.50;1.00
6270;DHT22;3168;51.684;6.954;2022-09-21T14:25:21;17.50;1.00
6270;DHT22;3168;51.684;6.954;2022-09-21T14:27:44;17.40;1.00
6270;DHT22;3168;51.684;6.954;2022-09-21T14:30:17;17.60;1.00
6270;DHT22;3168;51.684;6.954;2022-09-21T14:32:44;17.80;1.00
6270;DHT22;3168;51.684;6.954;2022-09-21T14:35:11;17.90;1.00
6270;DHT22;3168;51.684;6.954;2022-09-21T14:37:38;17.80;1.00
6270;DHT22;3168;51.684;6.954;2022-09-21T14:40:05;18.20;1.00
6270;DHT22;3168;51.684;6.954;2022-09-21T14:42:31;18.40;1.00
6270;DHT22;3168;51.684;6.954;2022-09-21T14:44:58;18.40;1.00
6270;DHT22;3168;51.684;6.954;2022-09-21T14:47:32;18.60;1.00
6270;DHT22;3168;51.684;6.954;2022-09-21T14:50:01;19.20;1.00
6270;DHT22;3168;51.684;6.954;2022-09-21T14:52:32;18.60;1.00
6270;DHT22;3168;51.684;6.954;2022-09-21T14:57:49;19.20;1.00
6270;DHT22;3168;51.684;6.954;2022-09-21T15:00:15;19.20;1.00
6270;DHT22;3168;51.684;6.954;2022-09-21T15:02:39;19.70;1.00
6270;DHT22;3168;51.684;6.954;2022-09-21T15:05:21;19.60;1.00
6270;DHT22;3168;51.684;6.954;2022-09-21T15:07:54;20.20;1.00
6270;DHT22;3168;51.684;6.954;2022-09-21T15:10:47;20.10;1.00
6270;DHT22;3168;51.684;6.954;2022-09-21T15:16:17;20.00;1.00
6270;DHT22;3168;51.684;6.954;2022-09-21T15:18:44;20.20;1.00
6270;DHT22;3168;51.684;6.954;2022-09-21T15:21:17;20.10;1.00
6270;DHT22;3168;51.684;6.954;2022-09-21T15:23:37;19.60;1.00
6270;DHT22;3168;51.684;6.954;2022-09-21T15:26:08;20.00;1.00
6270;DHT22;3168;51.684;6.954;2022-09-21T15:28:36;20.00;1.00
6270;DHT22;3168;51.684;6.954;2022-09-21T15:31:00;20.30;1.00
6270;DHT22;3168;51.684;6.954;2022-09-21T15:33:25;20.50;1.00
6270;DHT22;3168;51.684;6.954;2022-09-21T15:35:51;20.30;1.00
6270;DHT22;3168;51.684;6.954;2022-09-21T15:38:25;20.40;1.00
6270;DHT22;3168;51.684;6.954;2022-09-21T15:40:49;21.10;1.00
6270;DHT22;3168;51.684;6.954;2022-09-21T15:43:16;20.60;1.00
6270;DHT22;3168;51.684;6.954;2022-09-21T15:45:52;20.30;1.00
6270;DHT22;3168;51.684;6.954;2022-09-21T15:48:17;18.70;1.00
6270;DHT22;3168;51.684;6.954;2022-09-21T15:50:43;18.30;1.00
6270;DHT22;3168;51.684;6.954;2022-09-21T15:53:13;17.50;1.00
6270;DHT22;3168;51.684;6.954;2022-09-21T15:55:34;17.30;1.00
6270;DHT22;3168;51.684;6.954;2022-09-21T15:58:01;16.80;1.00
6270;DHT22;3168;51.684;6.954;2022-09-21T16:00:29;16.80;1.00
6270;DHT22;3168;51.684;6.954;2022-09-21T16:02:56;16.80;1.00
6270;DHT22;3168;51.684;6.954;2022-09-21T16:05:20;16.60;1.00
6270;DHT22;3168;51.684;6.954;2022-09-21T16:07:46;16.40;1.00
6270;DHT22;3168;51.684;6.954;2022-09-21T16:10:36;16.60;1.00
6270;DHT22;3168;51.684;6.954;2022-09-21T16:13:09;16.50;1.00
6270;DHT22;3168;51.684;6.954;2022-09-21T16:15:35;16.50;1.00
6270;DHT22;3168;51.684;6.954;2022-09-21T16:18:02;16.50;1.00
6270;DHT22;3168;51.684;6.954;2022-09-21T16:20:37;16.40;1.00
6270;DHT22;3168;51.684;6.954;2022-09-21T16:23:03;16.40;1.00
6270;DHT22;3168;51.684;6.954;2022-09-21T16:25:29;16.40;1.00
6270;DHT22;3168;51.684;6.954;2022-09-21T16:27:55;16.40;1.00
6270;DHT22;3168;51.684;6.954;2022-09-21T16:32:58;16.30;1.00
6270;DHT22;3168;51.684;6.954;2022-09-21T16:35:26;16.30;1.00
6270;DHT22;3168;51.684;6.954;2022-09-21T16:37:53;16.30;1.00
6270;DHT22;3168;51.684;6.954;2022-09-21T16:40:19;16.30;1.00
6270;DHT22;3168;51.684;6.954;2022-09-21T16:42:44;16.30;1.00
6270;DHT22;3168;51.684;6.954;2022-09-21T16:45:15;16.30;1.00
6270;DHT22;3168;51.684;6.954;2022-09-21T16:47:36;16.20;1.00
6270;DHT22;3168;51.684;6.954;2022-09-21T16:50:05;16.10;1.00
6270;DHT22;3168;51.684;6.954;2022-09-21T16:52:28;15.90;1.00
6270;DHT22;3168;51.684;6.954;2022-09-21T16:54:54;15.90;1.00
6270;DHT22;3168;51.684;6.954;2022-09-21T16:57:20;15.90;1.00
6270;DHT22;3168;51.684;6.954;2022-09-21T16:59:45;15.80;1.00
6270;DHT22;3168;51.684;6.954;2022-09-21T17:02:11;15.70;1.00
6270;DHT22;3168;51.684;6.954;2022-09-21T17:04:37;15.60;1.00
6270;DHT22;3168;51.684;6.954;2022-09-21T17:07:03;15.40;1.00
6270;DHT22;3168;51.684;6.954;2022-09-21T17:09:31;15.30;1.00
6270;DHT22;3168;51.684;6.954;2022-09-21T17:11:56;15.10;1.00
6270;DHT22;3168;51.684;6.954;2022-09-21T17:14:22;15.00;1.00
6270;DHT22;3168;51.684;6.954;2022-09-21T17:16:51;14.90;1.00
6270;DHT22;3168;51.684;6.954;2022-09-21T17:19:16;14.70;1.00
6270;DHT22;3168;51.684;6.954;2022-09-21T17:21:43;14.50;1.00
6270;DHT22;3168;51.684;6.954;2022-09-21T17:24:09;14.50;1.00
6270;DHT22;3168;51.684;6.954;2022-09-21T17:26:35;14.30;1.00
6270;DHT22;3168;51.684;6.954;2022-09-21T17:29:00;14.20;1.00
6270;DHT22;3168;51.684;6.954;2022-09-21T17:31:26;14.10;1.00
6270;DHT22;3168;51.684;6.954;2022-09-21T17:33:52;14.00;1.00